^^
Station Historical Data
Daily Summary for September 27, 2017 Units:  Metric    English   Both
« Previous Day
Next Day »
Daily Weekly Monthly Yearly Custom
  High: Low: Average:
Temperature: 28.4 °C 10.3 °C 17.7 °C
Dew Point: -8.1 °C -11.5 °C -9.7 °C
Humidity: 23% 7% 16%
Wind Speed: 22.7km/h 0km/h 3.2km/h
Wind Gust: 29km/h - -
Wind- - SSW
Pressure: 1017.8 hPa 1011.7 hPa -
Precipitation: 0 mm    
Historical Graphs
 
 
Tabular Data for September 27, 2017
Time Temperature Dew Point Pressure Wind Wind Speed Wind Gust Humidity Rainfall Rate (Hourly) solar Conditions
03:20 12.7 °C -9.7 °C 1016.1 hPa Calm     20% 0 mm 0.0 W/m2
03:25 12.6 °C -9.8 °C 1016.1 hPa Calm     20% 0 mm 0.0 W/m2
03:30 12.6 °C -9.8 °C 1016.1 hPa Calm     20% 0 mm 0.0 W/m2
03:36 12.4 °C -10 °C 1016.1 hPa Calm     20% 0 mm 0.0 W/m2
03:41 12.3 °C -10 °C 1016.5 hPa Calm     20% 0 mm 0.0 W/m2
03:46 12.2 °C -10.1 °C 1016.5 hPa Calm     20% 0 mm 0.0 W/m2
03:51 12.2 °C -10.1 °C 1016.5 hPa Calm     20% 0 mm 0.0 W/m2
03:56 12.1 °C -10.2 °C 1016.5 hPa Calm     20% 0 mm 0.0 W/m2
04:02 12 °C -9.7 °C 1016.5 hPa Calm     21% 0 mm 0.0 W/m2
04:07 11.9 °C -9.8 °C 1016.5 hPa Calm     21% 0 mm 0.0 W/m2
04:12 11.8 °C -9.8 °C 1016.5 hPa Calm     21% 0 mm 0.0 W/m2
04:18 11.7 °C -9.9 °C 1016.5 hPa Calm     21% 0 mm 0.0 W/m2
04:23 11.5 °C -10.1 °C 1016.5 hPa Calm     21% 0 mm 0.0 W/m2
04:33 11.6 °C -10 °C 1016.5 hPa Calm     21% 0 mm 0.0 W/m2
04:38 11.6 °C -10 °C 1016.5 hPa Calm     21% 0 mm 0.0 W/m2
04:48 12.1 °C -9.6 °C 1016.5 hPa Calm     21% 0 mm 0.0 W/m2
04:53 12.2 °C -9.5 °C 1016.5 hPa Calm     21% 0 mm 0.0 W/m2
05:04 12.2 °C -9.5 °C 1016.5 hPa Calm     21% 0 mm 0.0 W/m2
05:09 12.3 °C -9.4 °C 1016.5 hPa Calm     21% 0 mm 0.0 W/m2
05:14 12.2 °C -9.5 °C 1016.5 hPa Calm     21% 0 mm 0.0 W/m2
05:20 12.2 °C -9.5 °C 1016.5 hPa Calm     21% 0 mm 0.0 W/m2
05:25 12.1 °C -9.6 °C 1016.5 hPa Calm   4.8 km/h 21% 0 mm 0.0 W/m2
05:30 12.1 °C -9.6 °C 1016.5 hPa ESE 3.2 km/h 3.2 km/h 21% 0 mm 0.0 W/m2
05:40 11.6 °C -10 °C 1016.5 hPa Calm     21% 0 mm 0.0 W/m2
05:45 11.3 °C -10.3 °C 1016.5 hPa Calm     21% 0 mm 0.0 W/m2
05:50 11 °C -10.5 °C 1016.5 hPa Calm     21% 0 mm 0.0 W/m2
05:56 10.7 °C -10.2 °C 1016.8 hPa Calm     22% 0 mm 0.0 W/m2
06:05 10.4 °C -9.9 °C 1016.5 hPa Calm     23% 0 mm 0.0 W/m2
06:11 10.4 °C -9.9 °C 1016.8 hPa Calm     23% 0 mm 0.0 W/m2
06:16 10.5 °C -9.8 °C 1016.8 hPa Calm     23% 0 mm 0.0 W/m2
06:21 10.6 °C -9.7 °C 1016.8 hPa Calm     23% 0 mm 0.0 W/m2
06:26 10.5 °C -9.8 °C 1016.8 hPa Calm   4.8 km/h 23% 0 mm 0.0 W/m2
06:31 10.5 °C -9.8 °C 1016.8 hPa Calm     23% 0 mm 0.0 W/m2
06:36 10.4 °C -9.9 °C 1016.8 hPa Calm     23% 0 mm 5.0 W/m2
06:41 10.4 °C -9.9 °C 1017.2 hPa Calm     23% 0 mm 9.0 W/m2
06:51 10.7 °C -10.2 °C 1017.2 hPa Calm     22% 0 mm 16.0 W/m2
07:10 10.3 °C -9.9 °C 1017.2 hPa Calm     23% 0 mm 53.0 W/m2
07:36 11.8 °C -9.2 °C 1017.2 hPa Calm     22% 0 mm 149.0 W/m2
07:52 12.6 °C -9.2 °C 1017.5 hPa Calm     21% 0 mm 243.0 W/m2
08:07 13.8 °C -8.8 °C 1017.5 hPa Calm     20% 0 mm 299.0 W/m2
08:30 14.6 °C -8.8 °C 1017.5 hPa Calm     19% 0 mm 350.0 W/m2
08:46 15.4 °C -8.8 °C 1017.8 hPa Calm     18% 0 mm 418.0 W/m2
09:07 15.7 °C -8.6 °C 1017.8 hPa Calm   8 km/h 18% 0 mm 483.0 W/m2
09:26 16 °C -8.3 °C 1017.8 hPa Calm   8 km/h 18% 0 mm 545.0 W/m2
09:41 16.6 °C -8.6 °C 1017.8 hPa East 4.7 km/h 9.7 km/h 17% 0 mm 591.0 W/m2
09:57 17.1 °C -8.2 °C 1017.8 hPa Calm     17% 0 mm 636.0 W/m2
10:10 17.6 °C -8.5 °C 1017.5 hPa East 3.2 km/h 8 km/h 16% 0 mm 677.0 W/m2
10:32 18.7 °C -8.5 °C 1017.5 hPa Calm   1.6 km/h 15% 0 mm 731.0 W/m2
10:47 19.2 °C -8.1 °C 1017.2 hPa East 4.7 km/h 8 km/h 15% 0 mm 759.0 W/m2
11:03 20 °C -8.3 °C 1016.8 hPa Calm   8 km/h 14% 0 mm 789.0 W/m2
11:19 21 °C -8.5 °C 1016.8 hPa East 4.7 km/h 11.3 km/h 13% 0 mm 819.0 W/m2
11:35 21.6 °C -9 °C 1016.5 hPa NE 11.1 km/h 14.5 km/h 12% 0 mm 840.0 W/m2
11:54 22.2 °C -9.7 °C 1016.5 hPa NNE 19.5 km/h 19.5 km/h 11% 0 mm 860.0 W/m2
12:08 22.8 °C -9.2 °C 1016.1 hPa NNE 17.7 km/h 17.7 km/h 11% 0 mm 875.0 W/m2
12:38 23.6 °C -9.8 °C 1015.5 hPa North 13 km/h 14.5 km/h 10% 0 mm 886.0 W/m2
13:10 24.8 °C -8.9 °C 1014.8 hPa North 14.3 km/h 20.9 km/h 10% 0 mm 881.0 W/m2
13:24 25.2 °C -8.6 °C 1014.4 hPa North 22.7 km/h 24.1 km/h 10% 0 mm 874.0 W/m2
13:38 26 °C -9.3 °C 1014.1 hPa North 7.9 km/h 19.3 km/h 9% 0 mm 860.0 W/m2
13:53 26 °C -9.3 °C 1013.8 hPa North 9.7 km/h 14.5 km/h 9% 0 mm 842.0 W/m2
14:09 26.7 °C -8.8 °C 1013.4 hPa North 13 km/h 19.3 km/h 9% 0 mm 805.0 W/m2
14:24 27.1 °C -8.5 °C 1013.4 hPa NNW 14.3 km/h 22.5 km/h 9% 0 mm 796.0 W/m2
14:38 26.8 °C -8.7 °C 1013.1 hPa NNW 9.7 km/h 17.7 km/h 9% 0 mm 768.0 W/m2
14:54 27.5 °C -9.7 °C 1012.8 hPa NNW 14.3 km/h 29 km/h 8% 0 mm 738.0 W/m2
15:09 27.6 °C -8.1 °C 1012.8 hPa NNW 13 km/h 19.3 km/h 9% 0 mm 701.0 W/m2
15:24 27.6 °C -9.6 °C 1012.4 hPa NNW 13 km/h 22.5 km/h 8% 0 mm 661.0 W/m2
15:39 27.9 °C -9.4 °C 1012.4 hPa NNW 7.9 km/h 9.7 km/h 8% 0 mm 626.0 W/m2
15:54 27.9 °C -9.4 °C 1012.1 hPa NNW 13 km/h 17.7 km/h 8% 0 mm 575.0 W/m2
16:10 28.1 °C -11 °C 1012.1 hPa NNW 9.7 km/h 19.3 km/h 7% 0 mm 527.0 W/m2
16:26 28.3 °C -10.8 °C 1011.7 hPa NNW 13 km/h 13 km/h 7% 0 mm 476.0 W/m2
16:56 28.4 °C -10.7 °C 1011.7 hPa Calm     7% 0 mm 376.0 W/m2
17:11 28.3 °C -10.8 °C 1011.7 hPa NNW 11.1 km/h 14.5 km/h 7% 0 mm 315.0 W/m2
17:57 27.7 °C -11.2 °C 1012.1 hPa Calm     7% 0 mm 51.0 W/m2
18:11 27.3 °C -11.5 °C 1012.1 hPa Calm     7% 0 mm 60.0 W/m2
18:25 27.3 °C -11.5 °C 1012.4 hPa Calm     7% 0 mm 63.0 W/m2
18:39 27.1 °C -10 °C 1012.4 hPa Calm     8% 0 mm 25.0 W/m2
18:54 26.4 °C -10.5 °C 1012.4 hPa Calm     8% 0 mm 0.0 W/m2
19:25 24.2 °C -10.7 °C 1012.8 hPa Calm     9% 0 mm 0.0 W/m2
19:56 21.9 °C -11.1 °C 1012.8 hPa Calm     10% 0 mm 0.0 W/m2
20:11 21.4 °C -11.5 °C 1012.8 hPa Calm     10% 0 mm 0.0 W/m2
21:22 21 °C -10.6 °C 1012.8 hPa Calm     11% 0 mm 0.0 W/m2
21:30 20.8 °C -10.8 °C 1013.1 hPa Calm     11% 0 mm 0.0 W/m2
21:36 20.8 °C -10.8 °C 1013.1 hPa Calm     11% 0 mm 0.0 W/m2
21:46 20.6 °C -10.9 °C 1013.1 hPa Calm     11% 0 mm 0.0 W/m2
21:54 19.6 °C -10.6 °C 1013.1 hPa Calm     12% 0 mm 0.0 W/m2
Canyon Roadhouse, Fishriver Canyon, Namibia
Compliments of Weather Underground - 2 mb